• Join FlightAware (Why Join?)
  • Login
  • US Flag 
12:09AM EST


 

Airport Tracker/Info


-or-


 

Live Flight TrackerFlight Track Log ✈ AAY824 ✈ 27-Apr-2014 ✈ KPIE - KDSM

Flight Track Log - Related Links

Times and Time Zones

All times are in EDT time to prevent confusion due to time zone crossing. See the AAY824 flight status page for this flight to view local times or setup timezone preferences in your user account.

Time Position Orientation Groundspeed Altitude Reporting Facility
EDT Latitude Longitude Course Direction KTS MPH feet Rate Location/Type
08:38AM 27.9000 -82.6833 180° South 191 220 600  Level Tampa TRACON
08:38AM 27.8667 -82.6833 180° South 170 196 1,600 1,620 Climbing Tampa TRACON
08:39AM 27.8167 -82.7000 196° South 231 266 3,100 1,500 Climbing Tampa TRACON
08:40AM 27.8500 -82.7667 299° West 288 331 4,800 1,920 Climbing Tampa TRACON
08:43AM 28.0978 -82.7892 355° North 309 356 11,300 1,860 Climbing Jacksonville Center
08:44AM 28.2000 -82.7936 358° North 342 394 12,700 1,800 Climbing Jacksonville Center
08:45AM 28.3086 -82.8053 355° North 375 432 14,900 2,160 Climbing Jacksonville Center
08:46AM 28.4275 -82.8122 357° North 398 458 17,100 1,920 Climbing Jacksonville Center
08:47AM 28.5403 -82.8431 346° North 410 472 18,800 1,560 Climbing Jacksonville Center
08:48AM 28.6611 -82.8689 349° North 422 486 20,300 1,440 Climbing Jacksonville Center
08:49AM 28.7761 -82.9139 341° North 427 491 21,700 1,680 Climbing Jacksonville Center
08:50AM 28.8783 -82.9922 326° Northwest 433 498 23,700 1,680 Climbing Jacksonville Center
08:51AM 28.9867 -83.0586 332° Northwest 438 504 25,100 1,380 Climbing Jacksonville Center
08:52AM 29.0931 -83.1372 327° Northwest 445 512 26,500 1,800 Climbing Jacksonville Center
08:53AM 29.1994 -83.2067 330° Northwest 450 518 28,700 1,500 Climbing Jacksonville Center
08:54AM 29.2972 -83.2808 327° Northwest 444 511 29,500 900 Climbing Jacksonville Center
08:55AM 29.3992 -83.3550 328° Northwest 438 504 30,500 900 Climbing Jacksonville Center
08:56AM 29.5033 -83.4294 328° Northwest 433 498 31,300 720 Climbing Jacksonville Center
08:57AM 29.6136 -83.5114 327° Northwest 433 498 32,000 300 Climbing Jacksonville Center
08:58AM 29.7178 -83.5814 330° Northwest 433 498 32,000  Level Jacksonville Center
08:59AM 29.8175 -83.6561 327° Northwest 433 498 32,000  Level Jacksonville Center
09:00AM 29.9236 -83.7267 330° Northwest 438 504 32,000  Level Jacksonville Center
09:01AM 30.0231 -83.8017 327° Northwest 433 498 32,000  Level Jacksonville Center
09:02AM 30.1250 -83.8747 328° Northwest 433 498 32,000  Level Jacksonville Center
09:03AM 30.2244 -83.9481 328° Northwest 433 498 32,000  Level Jacksonville Center
09:04AM 30.3261 -84.0211 328° Northwest 433 498 32,000  Level Jacksonville Center
09:05AM 30.4278 -84.0947 328° Northwest 433 498 32,000  Level Jacksonville Center
09:06AM 30.5317 -84.1683 329° Northwest 433 498 32,000  Level Jacksonville Center
09:07AM 30.6289 -84.2419 327° Northwest 433 498 32,000  Level Jacksonville Center
09:08AM 30.7325 -84.3183 328° Northwest 433 498 32,000  Level Jacksonville Center
09:09AM 30.8319 -84.3903 328° Northwest 433 498 32,000  Level Jacksonville Center
09:11AM 30.9922 -84.5086 328° Northwest 434 499 32,000  Level Atlanta Center
09:12AM 31.0942 -84.5869 327° Northwest 434 499 32,000  Level Atlanta Center
09:13AM 31.1942 -84.6556 330° Northwest 428 493 32,000  Level Atlanta Center
09:14AM 31.2917 -84.7364 325° Northwest 428 493 32,000  Level Atlanta Center
09:15AM 31.4039 -84.8125 330° Northwest 433 498 32,000  Level Atlanta Center
09:16AM 31.5017 -84.8914 325° Northwest 433 498 32,000  Level Atlanta Center
09:17AM 31.6053 -84.9656 329° Northwest 433 498 32,000  Level Atlanta Center
09:18AM 31.7050 -85.0444 326° Northwest 433 498 32,000  Level Atlanta Center
09:19AM 31.8067 -85.1167 329° Northwest 433 498 32,000  Level Atlanta Center
09:20AM 31.9042 -85.1911 327° Northwest 428 493 32,000  Level Atlanta Center
09:21AM 32.0078 -85.2636 329° Northwest 428 493 32,000  Level Atlanta Center
09:22AM 32.1050 -85.3433 325° Northwest 428 493 32,000  Level Atlanta Center
09:23AM 32.2086 -85.4161 329° Northwest 434 499 32,000  Level Atlanta Center
09:24AM 32.3078 -85.4961 326° Northwest 434 499 32,000  Level Atlanta Center
09:25AM 32.4092 -85.5692 329° Northwest 428 493 32,000  Level Atlanta Center
09:26AM 32.5083 -85.6522 325° Northwest 434 499 32,000  Level Atlanta Center
09:27AM 32.6097 -85.7231 330° Northwest 434 499 32,000  Level Atlanta Center
09:28AM 32.7108 -85.8039 326° Northwest 434 499 32,000  Level Atlanta Center
09:29AM 32.8119 -85.8800 328° Northwest 434 499 32,000  Level Atlanta Center
09:30AM 32.9089 -85.9589 326° Northwest 434 499 32,000  Level Atlanta Center
09:31AM 33.0122 -86.0331 329° Northwest 434 499 32,000  Level Atlanta Center
09:32AM 33.1108 -86.1169 325° Northwest 434 499 32,000  Level Atlanta Center
09:33AM 33.2119 -86.1939 328° Northwest 434 499 32,000  Level Atlanta Center
09:34AM 33.3086 -86.2758 325° Northwest 434 499 32,000  Level Atlanta Center
09:35AM 33.4094 -86.3481 329° Northwest 434 499 32,000  Level Atlanta Center
09:36AM 33.5061 -86.4281 325° Northwest 429 494 32,000  Level Atlanta Center
09:37AM 33.5944 -86.4953 328° Northwest 424 488 32,000  Level Atlanta Center
09:38AM 33.6889 -86.5753 325° Northwest 424 488 32,000  Level Atlanta Center
09:39AM 33.7894 -86.6508 328° Northwest 424 488 32,000  Level Atlanta Center
09:41AM 33.9578 -86.7892 326° Northwest 420 483 32,000  Level Memphis Center
09:42AM 34.0564 -86.8661 327° Northwest 421 484 32,000  Level Memphis Center
09:43AM 34.1531 -86.9458 326° Northwest 421 484 32,000  Level Memphis Center
09:44AM 34.2517 -87.0233 327° Northwest 421 484 32,000  Level Memphis Center
09:45AM 34.3686 -87.1186 326° Northwest 421 484 32,000  Level Memphis Center
09:46AM 34.4661 -87.1983 326° Northwest 424 488 32,000  Level Memphis Center
09:47AM 34.5667 -87.2764 327° Northwest 424 488 32,000  Level Memphis Center
09:48AM 34.6594 -87.3533 326° Northwest 424 488 32,000  Level Memphis Center
09:49AM 34.7550 -87.4336 325° Northwest 423 487 32,000  Level Memphis Center
09:50AM 34.8711 -87.5294 326° Northwest 423 487 32,000  Level Memphis Center
09:51AM 34.9672 -87.6089 326° Northwest 422 486 32,000  Level Memphis Center
09:52AM 35.0636 -87.6883 326° Northwest 421 484 32,000  Level Memphis Center
09:53AM 35.1603 -87.7708 325° Northwest 421 484 32,000  Level Memphis Center
09:54AM 35.2583 -87.8497 327° Northwest 424 488 32,000  Level Memphis Center
09:55AM 35.3553 -87.9319 325° Northwest 424 488 32,000  Level Memphis Center
09:56AM 35.4628 -88.0189 327° Northwest 426 490 32,000  Level Memphis Center
09:57AM 35.5608 -88.1036 325° Northwest 425 489 32,000  Level Memphis Center
09:58AM 35.6547 -88.1772 328° Northwest 426 490 32,000  Level Memphis Center
09:59AM 35.7692 -88.2789 324° Northwest 425 489 32,000  Level Memphis Center
10:00AM 35.8678 -88.3608 326° Northwest 428 493 32,000  Level Memphis Center
10:01AM 35.9644 -88.4450 325° Northwest 427 491 32,000  Level Memphis Center
10:02AM 36.0628 -88.5269 326° Northwest 427 491 32,000  Level Memphis Center
10:03AM 36.1597 -88.6108 325° Northwest 427 491 32,000  Level Memphis Center
10:04AM 36.2600 -88.6947 326° Northwest 430 495 32,000  Level Memphis Center
10:06AM 36.3575 -88.7819 324° Northwest 431 496 32,000  Level Memphis Center
10:07AM 36.4769 -88.8828 326° Northwest 432 497 32,000 480 Level Memphis Center
10:08AM 36.5756 -88.9658 326° Northwest 432 497 33,000 480 Climbing Memphis Center
10:09AM 36.6739 -89.0514 325° Northwest 433 498 33,000  Level Memphis Center
10:10AM 36.7708 -89.1414 323° Northwest 434 499 33,000  Level Memphis Center
10:11AM 36.8725 -89.2264 326° Northwest 441 507 33,000 240 Level Memphis Center
10:12AM 36.9711 -89.3172 324° Northwest 441 507 33,600 480 Climbing Memphis Center
10:13AM 37.0728 -89.4008 327° Northwest 441 507 34,000 180 Climbing Memphis Center
10:14AM 37.1900 -89.5086 324° Northwest 437 503 34,000  Level Memphis Center
10:15AM 37.2911 -89.5978 325° Northwest 441 507 34,000  Level Memphis Center
10:16AM 37.3900 -89.6892 324° Northwest 441 507 34,000  Level Memphis Center
10:17AM 37.4936 -89.7742 327° Northwest 442 509 34,000  Level Memphis Center
10:18AM 37.5914 -89.8700 322° Northwest 443 510 34,000  Level Memphis Center
10:19AM 37.6953 -89.9558 327° Northwest 443 510 34,000  Level Memphis Center
10:20AM 37.7944 -90.0514 323° Northwest 444 511 34,000  Level Memphis Center
10:21AM 37.9467 -90.1867 325° Northwest 446 513 34,000  Level Kansas City Center
10:22AM 38.0506 -90.2758 326° Northwest 448 516 34,000  Level Kansas City Center
10:23AM 38.1486 -90.3700 323° Northwest 446 513 34,000  Level Kansas City Center
10:24AM 38.2503 -90.4608 325° Northwest 444 511 34,000  Level Kansas City Center
10:25AM 38.3506 -90.5578 323° Northwest 447 514 34,000  Level Kansas City Center
10:26AM 38.4628 -90.6550 326° Northwest 447 514 34,000  Level Kansas City Center
10:27AM 38.5722 -90.7644 322° Northwest 446 513 34,000  Level Kansas City Center
10:28AM 38.6750 -90.8550 325° Northwest 445 512 34,000  Level Kansas City Center
10:30AM 38.7742 -90.9511 323° Northwest 445 512 34,000  Level Kansas City Center
10:31AM 38.8758 -91.0414 325° Northwest 445 512 34,000  Level Kansas City Center
10:32AM 38.9725 -91.1392 322° Northwest 442 509 34,000 -540 Level Kansas City Center
10:33AM 39.0742 -91.2269 326° Northwest 440 506 33,000 -1,020 Descending Kansas City Center
10:34AM 39.1700 -91.3272 321° Northwest 441 507 32,000 -1,020 Descending Kansas City Center
10:35AM 39.2725 -91.4197 325° Northwest 445 512 31,000 -540 Descending Kansas City Center
10:36AM 39.3722 -91.5161 323° Northwest 448 516 31,000  Level Kansas City Center
10:37AM 39.4731 -91.6125 324° Northwest 448 516 31,000  Level Kansas City Center
10:38AM 39.5869 -91.7211 324° Northwest 449 517 31,000  Level Kansas City Center
10:39AM 39.6878 -91.8142 325° Northwest 449 517 31,000  Level Kansas City Center
10:40AM 39.7853 -91.9128 322° Northwest 448 516 31,000  Level Kansas City Center
10:41AM 39.8853 -92.0100 323° Northwest 450 518 31,000 -300 Level Kansas City Center
10:42AM 39.9853 -92.1094 323° Northwest 450 518 30,400 -780 Descending Kansas City Center
10:43AM 40.0842 -92.2069 323° Northwest 451 519 29,500 -1,080 Descending Kansas City Center
10:44AM 40.2053 -92.3253 323° Northwest 453 521 28,300 -1,080 Descending Kansas City Center
10:45AM 40.3000 -92.4153 324° Northwest 459 528 27,400 -960 Descending Kansas City Center
10:46AM 40.4017 -92.5161 323° Northwest 459 528 26,400 -1,080 Descending Kansas City Center
10:47AM 40.5025 -92.6167 323° Northwest 457 526 25,200 -1,620 Descending Kansas City Center
10:48AM 40.6200 -92.7322 323° Northwest 450 518 23,200 -1,920 Descending Kansas City Center
10:49AM 40.6947 -92.8139 320° Northwest 444 511 21,600 -1,920 Descending Chicago Center
10:50AM 40.7956 -92.9031 326° Northwest 442 509 19,500 -2,400 Descending Chicago Center
10:51AM 40.9053 -93.0244 320° Northwest 436 502 16,700 -2,400 Descending Chicago Center
10:52AM 40.9961 -93.1208 321° Northwest 424 488 14,600 -1,920 Descending Chicago Center
10:53AM 41.0764 -93.2219 317° Northwest 409 471 12,800 -1,620 Descending Chicago Center
10:54AM 41.1539 -93.3236 315° West 402 463 11,300 -1,380 Descending Chicago Center
10:55AM 41.2294 -93.4219 316° Northwest 391 450 10,000 -900 Descending Chicago Center
10:56AM 41.3008 -93.5036 319° Northwest 333 383 9,700 -540 Descending Minneapolis Center
10:56AM 41.3136 -93.5378 296° West 335 386 9,400 -1,500 Descending Minneapolis Center
10:57AM 41.3644 -93.5850 325° Northwest 305 351 8,200 -1,800 Descending Minneapolis Center
10:57AM 41.3764 -93.6181 296° West 318 366 7,600 -1,680 Descending Minneapolis Center
10:58AM 41.4219 -93.6694 320° Northwest 306 352 6,600 -1,560 Descending Minneapolis Center
10:58AM 41.4381 -93.7100 298° West 309 356 6,000 -1,440 Descending Minneapolis Center
10:59AM 41.4814 -93.7483 326° Northwest 298 343 5,100 -1,440 Descending Minneapolis Center
10:59AM 41.4983 -93.7867 301° West 299 344 4,500 -1,860 Descending Minneapolis Center
11:00AM 41.5428 -93.8219 329° Northwest 293 337 3,300 -1,800 Descending Minneapolis Center
11:00AM 41.5622 -93.8581 306° West 300 345 2,700 -840 Descending Minneapolis Center
11:01AM 41.6075 -93.8372 19° North 243 280 2,500 -300 Descending Minneapolis Center
11:01AM 41.6078 -93.8225 89° East 202 232 2,400 -120 Descending Minneapolis Center
11:02AM 41.6108 -93.7733 85° East 151 174 2,400 60 Level Minneapolis Center
11:02AM 41.5997 -93.7547 129° Southeast 174 200 2,500 -360 Climbing Minneapolis Center
11:03AM 41.5894 -93.7211 112° Southeast 147 169 2,100 -780 Descending Minneapolis Center
11:03AM 41.5728 -93.7147 164° South 143 165 1,700 -840 Descending Minneapolis Center
11:04AM 41.5639 -93.6856 112° Southeast 121 139 1,300 -600 Descending Minneapolis Center
11:04AM 41.5494 -93.6800 164° South 130 150 1,100 -240 Descending Minneapolis Center
11:05AM 41.5314 -93.6539 133° Southeast 81 93 1,000 -60 Descending Minneapolis Center
11:06AM 41.5292 -93.6475 115° Southeast 37 43 1,000  Level Minneapolis Center